createdAt,value
2018-05-04T00:00:14.923Z,3.00
2018-05-04T00:02:42.506Z,2.77
2018-05-04T00:05:10.091Z,2.73
2018-05-04T00:07:37.669Z,2.57
2018-05-04T00:10:05.316Z,2.97
2018-05-04T00:12:32.941Z,2.70
2018-05-04T00:15:00.591Z,2.63
2018-05-04T00:17:28.189Z,2.30
2018-05-04T00:19:55.770Z,3.00
2018-05-04T00:22:23.409Z,2.43
2018-05-04T00:24:51.033Z,3.00
2018-05-04T00:27:18.626Z,2.73
2018-05-04T00:29:46.229Z,3.30
2018-05-04T00:32:14.567Z,2.83
2018-05-04T00:34:42.153Z,2.90
2018-05-04T00:37:09.738Z,3.17
2018-05-04T00:39:37.313Z,3.30
2018-05-04T00:42:04.934Z,3.30
2018-05-04T00:44:32.513Z,3.20
2018-05-04T00:47:00.098Z,3.20
2018-05-04T00:49:27.674Z,3.30
2018-05-04T00:51:55.272Z,3.37
2018-05-04T00:54:23.683Z,3.27
2018-05-04T00:56:51.251Z,3.47
2018-05-04T00:59:18.818Z,3.40
2018-05-04T01:01:46.383Z,3.20
2018-05-04T01:04:13.975Z,3.47
2018-05-04T01:06:41.579Z,3.27
2018-05-04T01:09:09.165Z,3.50
2018-05-04T01:11:36.763Z,3.30
2018-05-04T01:14:05.145Z,3.77
2018-05-04T01:16:33.493Z,3.67
2018-05-04T01:19:01.082Z,3.33
2018-05-04T01:21:28.674Z,3.60
2018-05-04T01:23:56.254Z,3.67
2018-05-04T01:26:23.850Z,3.43
2018-05-04T01:28:51.431Z,3.07
2018-05-04T01:31:20.416Z,3.67
2018-05-04T01:33:48.775Z,4.03
2018-05-04T01:36:16.367Z,3.50
2018-05-04T01:38:43.982Z,3.57
2018-05-04T01:41:11.569Z,3.30
2018-05-04T01:43:39.157Z,3.50
2018-05-04T01:46:06.761Z,3.80
2018-05-04T01:48:34.352Z,3.47
2018-05-04T01:51:01.940Z,2.73
2018-05-04T01:53:29.498Z,3.20
2018-05-04T01:55:57.058Z,3.30
2018-05-04T01:58:24.646Z,3.03
2018-05-04T02:00:52.237Z,3.07
2018-05-04T02:03:19.803Z,3.20
2018-05-04T02:05:47.386Z,2.83
2018-05-04T02:08:15.034Z,2.70
2018-05-04T02:10:42.638Z,3.03
2018-05-04T02:13:10.224Z,3.30
2018-05-04T02:15:37.809Z,3.50
2018-05-04T02:18:05.386Z,3.80
2018-05-04T02:20:32.976Z,4.10
2018-05-04T02:23:00.547Z,3.70
2018-05-04T02:25:28.121Z,4.00
2018-05-04T02:27:55.710Z,4.10
2018-05-04T02:30:23.349Z,3.63
2018-05-04T02:32:50.916Z,3.80
2018-05-04T02:35:18.518Z,4.07
2018-05-04T02:37:46.095Z,3.90
2018-05-04T02:40:14.466Z,4.03
2018-05-04T02:42:42.824Z,4.27
2018-05-04T02:45:10.413Z,4.20
2018-05-04T02:47:38.767Z,4.83
2018-05-04T02:50:06.358Z,4.77
2018-05-04T02:52:33.992Z,4.50
2018-05-04T02:55:01.574Z,4.53
2018-05-04T02:57:29.158Z,4.70
2018-05-04T02:59:56.742Z,3.97
2018-05-04T03:02:24.348Z,4.20
2018-05-04T03:04:52.696Z,4.37
2018-05-04T03:07:20.278Z,3.83
2018-05-04T03:09:47.853Z,3.70
2018-05-04T03:12:15.474Z,4.30
2018-05-04T03:14:43.114Z,4.07
2018-05-04T03:17:10.711Z,3.93
2018-05-04T03:19:38.293Z,3.67
2018-05-04T03:22:05.879Z,4.00
2018-05-04T03:24:33.487Z,3.97
2018-05-04T03:27:01.233Z,3.67
2018-05-04T03:29:28.832Z,4.20
2018-05-04T03:31:56.392Z,3.80
2018-05-04T03:34:23.979Z,3.70
2018-05-04T03:36:51.572Z,3.77
2018-05-04T03:39:19.185Z,3.70
2018-05-04T03:41:46.755Z,3.60
2018-05-04T03:44:15.193Z,3.80
2018-05-04T03:46:43.695Z,3.40
2018-05-04T03:49:11.290Z,4.03
2018-05-04T03:51:38.897Z,3.20
2018-05-04T03:54:06.472Z,3.63
2018-05-04T03:56:34.055Z,3.43
2018-05-04T03:59:13.452Z,3.60
2018-05-04T04:01:52.695Z,3.63
2018-05-04T04:04:20.282Z,3.60
2018-05-04T04:06:47.857Z,4.17
2018-05-04T04:09:15.544Z,3.80
2018-05-04T04:11:43.119Z,4.17
2018-05-04T04:14:10.692Z,3.93
2018-05-04T04:16:38.284Z,3.50
2018-05-04T04:19:05.928Z,3.70
2018-05-04T04:21:33.505Z,3.93
2018-05-04T04:24:01.089Z,3.57
2018-05-04T04:26:28.683Z,3.50
2018-05-04T04:28:56.276Z,3.37
2018-05-04T04:31:23.870Z,3.40
2018-05-04T04:33:52.214Z,4.00
2018-05-04T04:36:20.311Z,3.50
2018-05-04T05:22:27.642Z,4.30
2018-05-04T05:24:55.223Z,4.30
2018-05-04T05:27:22.827Z,4.30
2018-05-04T05:29:50.420Z,4.13
2018-05-04T05:32:18.024Z,4.30
2018-05-04T05:34:45.607Z,4.70
2018-05-04T05:37:13.174Z,5.60
2018-05-04T05:39:40.772Z,5.10
2018-05-04T05:42:08.352Z,5.80
2018-05-04T05:44:35.943Z,5.60
2018-05-04T05:47:03.549Z,5.80
2018-05-04T05:49:31.284Z,5.43
2018-05-04T05:51:58.948Z,5.40
2018-05-04T05:54:27.290Z,6.83
2018-05-04T05:56:54.855Z,5.83
2018-05-04T05:59:22.424Z,6.07
2018-05-04T06:01:50.007Z,5.80
2018-05-04T06:04:17.608Z,5.07
2018-05-04T06:06:45.428Z,5.27
2018-05-04T06:09:13.002Z,5.90
2018-05-04T06:11:41.332Z,5.57
2018-05-04T06:14:08.927Z,5.20
2018-05-04T06:16:36.517Z,5.27
2018-05-04T06:19:04.112Z,5.23
2018-05-04T06:21:31.739Z,5.30
2018-05-04T06:23:59.328Z,5.27
2018-05-04T06:26:26.915Z,4.50
2018-05-04T06:28:54.505Z,4.57
2018-05-04T06:31:22.155Z,4.70
2018-05-04T06:33:49.826Z,4.40
2018-05-04T06:36:17.399Z,4.87
2018-05-04T06:38:45.014Z,4.33
2018-05-04T06:41:12.649Z,4.50
2018-05-04T06:43:40.318Z,4.37
2018-05-04T06:46:07.875Z,4.23
2018-05-04T06:48:35.488Z,4.60
2018-05-04T06:51:03.076Z,4.03
2018-05-04T06:53:30.655Z,4.80
2018-05-04T06:55:58.283Z,4.60
2018-05-04T06:58:25.874Z,4.83
2018-05-04T07:00:53.443Z,5.73
2018-05-04T07:03:21.035Z,4.77
2018-05-04T07:05:48.631Z,5.20
2018-05-04T07:08:16.239Z,4.73
2018-05-04T07:10:43.833Z,5.17
2018-05-04T07:13:11.454Z,5.37
2018-05-04T07:15:39.054Z,4.50
2018-05-04T07:18:06.642Z,5.03
2018-05-04T07:20:34.229Z,4.47
2018-05-04T07:23:01.825Z,4.40
2018-05-04T07:25:29.410Z,4.10
2018-05-04T07:27:57.011Z,4.80
2018-05-04T07:30:24.659Z,4.20
2018-05-04T07:32:53.033Z,4.50
2018-05-04T07:35:21.409Z,4.17
2018-05-04T07:37:49.765Z,3.27
2018-05-04T07:40:17.349Z,3.50
2018-05-04T07:42:44.970Z,3.77
2018-05-04T07:45:12.573Z,3.83
2018-05-04T07:47:40.199Z,3.70
2018-05-04T07:50:07.777Z,3.77
2018-05-04T07:52:35.428Z,3.30
2018-05-04T07:55:03.007Z,3.30
2018-05-04T07:57:30.606Z,3.13
2018-05-04T07:59:58.769Z,3.20
2018-05-04T08:02:27.127Z,3.13
2018-05-04T08:04:54.728Z,2.70
2018-05-04T08:07:22.317Z,3.10
2018-05-04T08:09:49.925Z,2.83
2018-05-04T08:12:18.291Z,2.80
2018-05-04T08:14:45.891Z,3.40
2018-05-04T08:17:13.468Z,3.10
2018-05-04T08:19:41.071Z,3.40
2018-05-04T08:22:08.666Z,3.50
2018-05-04T08:24:36.291Z,3.27
2018-05-04T08:27:03.886Z,3.10
2018-05-04T08:29:32.224Z,3.20
2018-05-04T08:31:59.835Z,3.40
2018-05-04T08:34:28.006Z,3.70
2018-05-04T08:36:55.580Z,3.73
2018-05-04T08:39:23.155Z,3.27
2018-05-04T08:41:50.765Z,3.40
2018-05-04T08:44:19.123Z,3.13
2018-05-04T08:46:46.805Z,3.17
2018-05-04T08:49:14.355Z,3.53
2018-05-04T08:51:41.964Z,3.10
2018-05-04T08:54:09.563Z,3.60
2018-05-04T08:56:37.155Z,3.60
2018-05-04T08:59:04.753Z,3.20
2018-05-04T09:01:33.127Z,3.47
2018-05-04T09:04:00.729Z,3.80
2018-05-04T09:06:28.317Z,3.30
2018-05-04T09:08:56.680Z,3.27
2018-05-04T09:11:24.316Z,3.03
2018-05-04T09:13:51.921Z,3.60
2018-05-04T09:16:19.645Z,3.80
2018-05-04T09:18:47.225Z,3.20
2018-05-04T09:21:14.810Z,3.27
2018-05-04T09:23:42.374Z,3.07
2018-05-04T09:26:09.972Z,2.80
2018-05-04T09:28:37.560Z,3.33
2018-05-04T09:31:05.251Z,4.00
2018-05-04T09:33:32.802Z,3.63
2018-05-04T09:36:00.370Z,3.87
2018-05-04T09:38:27.978Z,3.23
2018-05-04T09:40:55.577Z,3.97
2018-05-04T09:43:23.201Z,4.03
2018-05-04T09:45:50.805Z,3.87
2018-05-04T09:48:18.394Z,3.33
2018-05-04T09:50:45.994Z,3.20
2018-05-04T09:53:13.585Z,3.63
2018-05-04T09:55:41.191Z,3.40
2018-05-04T09:58:08.768Z,3.00
2018-05-04T10:00:36.387Z,2.90
2018-05-04T10:03:04.005Z,3.10
2018-05-04T10:05:31.608Z,3.40
2018-05-04T10:07:59.197Z,3.73
2018-05-04T10:10:26.794Z,4.00
2018-05-04T10:12:54.474Z,3.53
2018-05-04T10:15:22.067Z,3.30
2018-05-04T10:17:49.658Z,3.67
2018-05-04T10:20:17.251Z,4.10
2018-05-04T10:22:44.842Z,3.40
2018-05-04T10:25:13.202Z,3.63
2018-05-04T10:27:40.800Z,3.20
2018-05-04T10:30:08.367Z,3.50
2018-05-04T10:32:35.972Z,3.87
2018-05-04T10:35:03.566Z,3.60
2018-05-04T10:37:31.180Z,3.97
2018-05-04T10:39:58.877Z,3.30
2018-05-04T10:42:26.496Z,3.60
2018-05-04T10:44:54.061Z,3.80
2018-05-04T10:47:21.647Z,3.53
2018-05-04T10:49:49.260Z,3.67
2018-05-04T10:52:16.869Z,3.60
2018-05-04T10:54:44.455Z,3.30
2018-05-04T10:57:12.168Z,4.00
2018-05-04T10:59:39.739Z,3.67
2018-05-04T11:02:07.336Z,4.10
2018-05-04T11:04:34.911Z,4.30
2018-05-04T11:07:02.503Z,3.60
2018-05-04T11:09:30.095Z,4.07
2018-05-04T11:11:57.677Z,4.00
2018-05-04T11:14:25.279Z,3.63
2018-05-04T11:16:52.875Z,4.10
2018-05-04T11:19:20.653Z,3.27
2018-05-04T11:21:48.247Z,4.30
2018-05-04T11:24:16.596Z,4.23
2018-05-04T11:26:44.201Z,3.60
2018-05-04T11:29:11.772Z,4.30
2018-05-04T11:31:39.353Z,3.90
2018-05-04T11:34:06.957Z,4.00
2018-05-04T11:36:34.599Z,4.13
2018-05-04T11:39:02.352Z,4.03
2018-05-04T11:41:29.852Z,3.90
2018-05-04T11:43:58.236Z,3.90
2018-05-04T11:46:25.853Z,3.60
2018-05-04T11:48:53.424Z,3.40
2018-05-04T11:51:21.041Z,3.83
2018-05-04T11:53:48.638Z,3.63
2018-05-04T11:56:16.197Z,3.40
2018-05-04T11:58:43.815Z,3.27
2018-05-04T12:01:11.415Z,3.40
2018-05-04T12:03:39.024Z,2.55
2018-05-04T12:06:06.630Z,2.80
2018-05-04T12:08:34.202Z,2.97
2018-05-04T12:11:01.782Z,3.17
2018-05-04T12:13:29.366Z,3.87
2018-05-04T12:15:57.726Z,3.10
2018-05-04T12:18:25.305Z,3.97
2018-05-04T12:20:52.893Z,3.40
2018-05-04T12:23:20.483Z,3.20
2018-05-04T12:25:48.051Z,4.30
2018-05-04T12:28:15.632Z,2.80
2018-05-04T12:30:43.249Z,3.70
2018-05-04T12:33:10.830Z,3.00
2018-05-04T12:35:38.406Z,3.50
2018-05-04T12:38:06.005Z,3.17
2018-05-04T12:40:33.597Z,3.12
2018-05-04T12:43:01.190Z,3.45
2018-05-04T12:45:28.773Z,2.92
2018-05-04T12:47:56.361Z,3.40
2018-05-04T12:50:23.976Z,3.70
2018-05-04T12:52:51.574Z,3.20
2018-05-04T12:55:19.151Z,3.13
2018-05-04T12:57:46.748Z,3.27
2018-05-04T13:00:14.366Z,3.07
2018-05-04T13:02:41.956Z,3.90
2018-05-04T13:05:09.544Z,3.03
2018-05-04T13:07:37.138Z,3.50
2018-05-04T13:10:05.483Z,4.00
2018-05-04T13:12:33.126Z,3.80
2018-05-04T13:15:00.708Z,3.63
2018-05-04T13:17:28.334Z,3.40
2018-05-04T13:19:55.944Z,3.23
2018-05-04T13:22:23.541Z,3.57
2018-05-04T13:24:51.144Z,3.60
2018-05-04T13:27:18.865Z,3.97
2018-05-04T13:29:46.483Z,3.60
2018-05-04T13:32:14.069Z,4.00
2018-05-04T13:34:41.662Z,3.20
2018-05-04T13:37:09.238Z,3.60
2018-05-04T13:39:36.843Z,3.43
2018-05-04T13:42:04.444Z,3.90
2018-05-04T13:44:32.089Z,3.43
2018-05-04T13:46:59.648Z,3.60
2018-05-04T13:49:27.233Z,3.40
2018-05-04T13:51:54.821Z,3.30
2018-05-04T13:54:22.559Z,3.40
2018-05-04T13:56:50.166Z,3.77
2018-05-04T13:59:17.778Z,3.80
2018-05-04T14:01:45.389Z,3.50
2018-05-04T14:04:12.985Z,4.07
2018-05-04T14:06:41.337Z,3.50
2018-05-04T14:09:08.903Z,3.53
2018-05-04T14:11:36.493Z,3.80
2018-05-04T14:14:04.076Z,3.50
2018-05-04T14:16:31.656Z,3.20
2018-05-04T14:18:59.390Z,3.35
2018-05-04T14:21:26.991Z,3.15
2018-05-04T14:23:54.583Z,3.95
2018-05-04T14:26:22.183Z,3.65
2018-05-04T14:28:49.769Z,3.10
2018-05-04T14:31:17.361Z,3.20
2018-05-04T14:33:45.713Z,3.28
2018-05-04T14:36:13.297Z,3.47
2018-05-04T14:38:40.876Z,3.45
2018-05-04T14:41:08.466Z,4.00
2018-05-04T14:43:36.086Z,3.35
2018-05-04T14:46:03.674Z,3.50
2018-05-04T14:48:31.258Z,3.78
2018-05-04T14:50:58.848Z,3.15
2018-05-04T14:53:26.448Z,3.10
2018-05-04T14:55:54.837Z,3.08
2018-05-04T14:58:22.500Z,3.33
2018-05-04T15:00:50.081Z,3.30
2018-05-04T15:03:17.674Z,3.17
2018-05-04T15:05:45.266Z,3.42
2018-05-04T15:08:13.622Z,3.60
2018-05-04T15:10:41.270Z,3.30
2018-05-04T15:13:08.849Z,2.75
2018-05-04T15:15:36.443Z,3.10
2018-05-04T15:18:04.166Z,3.17
2018-05-04T15:20:31.725Z,3.20
2018-05-04T15:22:59.330Z,3.12
2018-05-04T15:25:26.942Z,3.37
2018-05-04T15:27:54.534Z,3.00
2018-05-04T15:30:22.904Z,3.62
2018-05-04T15:32:50.682Z,3.42
2018-05-04T15:35:19.047Z,3.40
2018-05-04T15:37:46.644Z,3.17
2018-05-04T15:40:14.240Z,3.65
2018-05-04T15:42:42.373Z,3.92
2018-05-04T15:45:09.961Z,3.47
2018-05-04T15:47:37.535Z,3.20
2018-05-04T15:50:10.654Z,3.90
2018-05-04T15:52:38.262Z,3.50
2018-05-04T15:55:05.886Z,4.43
2018-05-04T15:57:33.473Z,4.00
2018-05-04T16:00:01.119Z,3.90
2018-05-04T16:02:28.639Z,3.43
2018-05-04T16:04:56.208Z,4.00
2018-05-04T16:07:23.874Z,3.50
2018-05-04T16:09:52.086Z,3.57
2018-05-04T16:12:20.445Z,4.00
2018-05-04T16:14:48.011Z,3.83
2018-05-04T16:17:15.609Z,3.27
2018-05-04T16:19:43.205Z,3.03
2018-05-04T16:22:10.844Z,3.47
2018-05-04T16:24:38.551Z,3.63
2018-05-04T16:27:06.160Z,3.33
2018-05-04T16:29:33.737Z,3.50
2018-05-04T16:32:01.330Z,2.43
2018-05-04T16:34:28.933Z,4.18
2018-05-04T16:36:56.524Z,3.63
2018-05-04T16:39:24.106Z,3.13
2018-05-04T16:41:51.714Z,3.80
2018-05-04T16:44:19.295Z,3.90
2018-05-04T16:46:52.422Z,3.90
2018-05-04T16:49:26.637Z,3.50
2018-05-04T16:51:54.239Z,3.03
2018-05-04T16:54:22.602Z,3.33
2018-05-04T16:56:51.008Z,3.50
2018-05-04T16:59:18.630Z,3.47
2018-05-04T17:01:46.249Z,3.00
2018-05-04T17:04:13.878Z,3.27
2018-05-04T17:06:41.506Z,3.10
2018-05-04T17:09:09.236Z,3.23
2018-05-04T17:11:36.762Z,3.17
2018-05-04T17:14:04.386Z,3.00
2018-05-04T17:16:32.018Z,2.90
2018-05-04T17:18:59.631Z,3.07
2018-05-04T17:21:27.229Z,2.83
2018-05-04T17:23:54.852Z,3.17
2018-05-04T17:26:22.491Z,2.50
2018-05-04T17:28:50.111Z,2.70
2018-05-04T17:31:17.678Z,3.40
2018-05-04T17:33:45.279Z,3.07
2018-05-04T17:36:12.865Z,2.60
2018-05-04T17:38:40.460Z,2.83
2018-05-04T17:41:08.082Z,3.20
2018-05-04T17:43:35.689Z,3.37
2018-05-04T17:46:03.362Z,2.95
2018-05-04T17:48:30.978Z,2.87
2018-05-04T17:50:59.323Z,3.03
2018-05-04T17:53:26.971Z,3.03
2018-05-04T17:55:54.541Z,3.93
2018-05-04T17:58:22.124Z,3.37
2018-05-04T18:00:49.704Z,3.00
2018-05-04T18:03:17.307Z,4.33
2018-05-04T18:05:44.873Z,4.87
2018-05-04T18:08:12.466Z,4.17
2018-05-04T18:10:40.132Z,4.30
2018-05-04T18:13:07.737Z,4.10
2018-05-04T18:15:35.335Z,3.60
2018-05-04T18:18:02.902Z,3.83
2018-05-04T18:20:30.491Z,3.40
2018-05-04T18:22:58.071Z,3.90
2018-05-04T18:25:25.832Z,4.00
2018-05-04T18:27:54.181Z,3.70
2018-05-04T18:30:21.760Z,4.10
2018-05-04T18:32:49.359Z,3.90
2018-05-04T18:35:16.937Z,3.90
2018-05-04T18:37:44.527Z,3.63
2018-05-04T18:40:12.132Z,3.83
2018-05-04T18:42:39.726Z,3.47
2018-05-04T18:45:07.360Z,3.60
2018-05-04T18:47:34.958Z,3.73
2018-05-04T18:50:02.554Z,4.23
2018-05-04T18:52:30.145Z,3.90
2018-05-04T18:54:57.749Z,4.00
2018-05-04T18:57:25.593Z,4.50
2018-05-04T18:59:53.207Z,4.90
2018-05-04T19:02:26.594Z,4.90
2018-05-04T19:04:54.163Z,4.60
2018-05-04T19:07:22.526Z,4.23
2018-05-04T19:09:50.138Z,4.40
2018-05-04T19:12:17.738Z,4.27
2018-05-04T19:14:45.347Z,4.30
2018-05-04T19:17:12.950Z,4.20
2018-05-04T19:19:40.556Z,4.60
2018-05-04T19:22:08.154Z,5.20
2018-05-04T19:24:35.781Z,4.60
2018-05-04T19:27:03.383Z,4.93
2018-05-04T19:29:30.979Z,4.97
2018-05-04T19:31:58.546Z,5.03
2018-05-04T19:34:26.285Z,5.70
2018-05-04T19:36:53.908Z,5.07
2018-05-04T19:39:21.507Z,4.40
2018-05-04T19:41:49.177Z,5.17
2018-05-04T19:44:16.762Z,4.60
2018-05-04T19:46:44.324Z,4.53
2018-05-04T19:49:12.713Z,4.70
2018-05-04T19:51:41.086Z,4.33
2018-05-04T19:54:08.664Z,5.20
2018-05-04T19:56:36.264Z,5.27
2018-05-04T19:59:03.887Z,5.20
2018-05-04T20:01:31.478Z,5.00
2018-05-04T20:03:59.214Z,4.37
2018-05-04T20:06:26.944Z,4.53
2018-05-04T20:08:54.541Z,4.53
2018-05-04T20:11:22.892Z,4.97
2018-05-04T20:13:50.500Z,4.63
2018-05-04T20:16:18.179Z,4.57
2018-05-04T20:18:45.775Z,4.90
2018-05-04T20:21:13.374Z,5.00
2018-05-04T20:23:41.735Z,4.67
2018-05-04T20:26:10.100Z,4.73
2018-05-04T20:28:37.702Z,5.00
2018-05-04T20:31:05.290Z,4.90
2018-05-04T20:33:32.916Z,4.50
2018-05-04T20:36:00.503Z,4.67
2018-05-04T20:38:28.107Z,4.67
2018-05-04T20:40:55.769Z,4.87
2018-05-04T20:43:23.362Z,4.57
2018-05-04T20:45:50.950Z,4.57
2018-05-04T20:48:18.542Z,3.67
2018-05-04T20:50:46.137Z,3.67
2018-05-04T20:53:13.727Z,3.73
2018-05-04T20:55:41.304Z,3.50
2018-05-04T20:58:08.941Z,3.40
2018-05-04T21:00:36.654Z,3.60
2018-05-04T21:03:04.257Z,3.67
2018-05-04T21:05:31.840Z,3.33
2018-05-04T21:07:59.440Z,3.77
2018-05-04T21:10:27.057Z,4.00
2018-05-04T21:12:54.660Z,3.63
2018-05-04T21:15:22.262Z,3.70
2018-05-04T21:17:49.867Z,3.73
2018-05-04T21:20:17.458Z,3.57
2018-05-04T21:22:45.045Z,3.00
2018-05-04T21:25:12.683Z,3.63
2018-05-04T21:27:40.293Z,3.37
2018-05-04T21:30:07.942Z,3.80
2018-05-04T21:32:35.553Z,3.57
2018-05-04T21:35:03.185Z,3.47
2018-05-04T21:37:30.775Z,3.90
2018-05-04T21:39:58.383Z,3.73
2018-05-04T21:42:26.719Z,3.20
2018-05-04T21:44:54.388Z,3.67
2018-05-04T21:47:21.943Z,3.80
2018-05-04T21:49:49.531Z,3.50
2018-05-04T21:52:17.934Z,3.40
2018-05-04T21:54:45.527Z,3.43
2018-05-04T21:57:13.104Z,3.53
2018-05-04T21:59:40.670Z,3.47
2018-05-04T22:02:08.247Z,3.17
2018-05-04T22:04:35.907Z,3.30
2018-05-04T22:07:03.486Z,4.00
2018-05-04T22:09:31.074Z,3.90
2018-05-04T22:11:58.651Z,3.90
2018-05-04T22:14:26.243Z,3.47
2018-05-04T22:16:53.843Z,3.50
2018-05-04T22:19:21.434Z,4.20
2018-05-04T22:21:49.799Z,3.83
2018-05-04T22:24:17.366Z,3.93
2018-05-04T22:26:44.954Z,3.73
2018-05-04T22:29:12.582Z,3.47
2018-05-04T22:31:40.185Z,3.57
2018-05-04T22:34:07.818Z,3.77
2018-05-04T22:36:35.410Z,3.83
2018-05-04T22:39:03.064Z,3.83
2018-05-04T22:41:30.658Z,3.63
2018-05-04T22:43:58.226Z,4.00
2018-05-04T22:46:26.568Z,3.67
2018-05-04T22:48:54.278Z,4.07
2018-05-04T22:51:21.866Z,3.80
2018-05-04T22:53:49.443Z,4.03
2018-05-04T22:56:17.037Z,3.60
2018-05-04T22:58:44.668Z,4.17
2018-05-04T23:01:12.276Z,3.60
2018-05-04T23:03:40.624Z,3.70
2018-05-04T23:06:08.244Z,3.83
2018-05-04T23:08:35.833Z,3.47
2018-05-04T23:11:03.490Z,3.40
2018-05-04T23:13:31.074Z,3.70
2018-05-04T23:15:58.657Z,3.93
2018-05-04T23:18:26.229Z,3.73
2018-05-04T23:20:53.852Z,3.33
2018-05-04T23:23:21.446Z,3.50
2018-05-04T23:25:49.057Z,3.90
2018-05-04T23:28:16.642Z,3.57
2018-05-04T23:30:44.261Z,3.90
2018-05-04T23:33:11.856Z,3.80
2018-05-04T23:35:39.464Z,4.03
2018-05-04T23:38:07.066Z,3.60
2018-05-04T23:40:34.686Z,3.30
2018-05-04T23:43:03.044Z,3.67
2018-05-04T23:45:31.425Z,3.90
2018-05-04T23:47:59.772Z,3.67
2018-05-04T23:50:27.362Z,3.90
2018-05-04T23:52:54.972Z,3.80
2018-05-04T23:55:22.600Z,3.77
2018-05-04T23:57:50.223Z,3.30
